N3288C KMEM-KMEM
Flight info
| Callsign | N3288C |
|---|---|
| Flight time | 0h 4m |
| Altitude | |
| Route | VFR PATTERN |
| Aircraft | BT36/L-VGD/C |
Departure
| Time | 2026-05-05 00:31 |
|---|---|
| Airport | Memphis International Airport (KMEM) |
Arrival
| Time | 2026-05-05 00:35 |
|---|---|
| Airport | Memphis International Airport (KMEM) |
| Time | Latitude | Longitude | Altitude | Speed | Heading |
|---|---|---|---|---|---|
| 2026-05-05 00:17 | 35.05437 | -89.97865 | 324 ft | 0 kts | 94° |
| 2026-05-05 00:22 | 35.05438 | -89.97863 | 324 ft | 2 kts | 74° |
| 2026-05-05 00:22 | 35.05446 | -89.97871 | 324 ft | 7 kts | 223° |
| 2026-05-05 00:22 | 35.05438 | -89.97940 | 325 ft | 12 kts | 275° |
| 2026-05-05 00:22 | 35.05468 | -89.98046 | 325 ft | 14 kts | 297° |
| 2026-05-05 00:23 | 35.05478 | -89.98119 | 324 ft | 2 kts | 270° |
| 2026-05-05 00:23 | 35.05478 | -89.98120 | 324 ft | 0 kts | 271° |
| 2026-05-05 00:25 | 35.05478 | -89.98132 | 323 ft | 0 kts | 270° |
| 2026-05-05 00:26 | 35.05478 | -89.98133 | 323 ft | 1 kts | 265° |
| 2026-05-05 00:26 | 35.05477 | -89.98134 | 323 ft | 1 kts | 246° |
| 2026-05-05 00:27 | 35.05463 | -89.98140 | 324 ft | 7 kts | 225° |
| 2026-05-05 00:27 | 35.05468 | -89.98222 | 325 ft | 18 kts | 282° |
| 2026-05-05 00:27 | 35.05530 | -89.98362 | 325 ft | 18 kts | 324° |
| 2026-05-05 00:27 | 35.05570 | -89.98442 | 325 ft | 3 kts | 275° |
| 2026-05-05 00:28 | 35.05570 | -89.98459 | 325 ft | 1 kts | 272° |
| 2026-05-05 00:28 | 35.05570 | -89.98495 | 325 ft | 9 kts | 259° |
| 2026-05-05 00:28 | 35.05513 | -89.98509 | 325 ft | 13 kts | 178° |
| 2026-05-05 00:28 | 35.05401 | -89.98510 | 325 ft | 19 kts | 180° |
| 2026-05-05 00:29 | 35.05272 | -89.98511 | 325 ft | 17 kts | 180° |
| 2026-05-05 00:29 | 35.05157 | -89.98512 | 325 ft | 16 kts | 180° |
| 2026-05-05 00:29 | 35.05048 | -89.98513 | 325 ft | 15 kts | 181° |
| 2026-05-05 00:29 | 35.04954 | -89.98524 | 325 ft | 11 kts | 216° |
| 2026-05-05 00:30 | 35.04935 | -89.98604 | 326 ft | 10 kts | 269° |
| 2026-05-05 00:30 | 35.04934 | -89.98679 | 327 ft | 8 kts | 271° |
| 2026-05-05 00:30 | 35.04908 | -89.98741 | 328 ft | 11 kts | 193° |
| 2026-05-05 00:30 | 35.04720 | -89.98740 | 326 ft | 55 kts | 179° |
| 2026-05-05 00:31 | 35.04159 | -89.98723 | 351 ft | 98 kts | 181° |
| 2026-05-05 00:31 | 35.03452 | -89.98710 | 591 ft | 102 kts | 184° |
| 2026-05-05 00:31 | 35.02703 | -89.98699 | 771 ft | 111 kts | 184° |
| 2026-05-05 00:31 | 35.02060 | -89.99125 | 984 ft | 111 kts | 235° |
| 2026-05-05 00:32 | 35.01987 | -90.00094 | 1039 ft | 122 kts | 269° |
| 2026-05-05 00:32 | 35.02248 | -90.01071 | 1207 ft | 127 kts | 297° |
| 2026-05-05 00:32 | 35.03016 | -90.01680 | 1312 ft | 142 kts | 336° |
| 2026-05-05 00:32 | 35.04034 | -90.01852 | 1305 ft | 151 kts | 357° |
| 2026-05-05 00:33 | 35.05063 | -90.01719 | 1427 ft | 148 kts | 7° |
| 2026-05-05 00:33 | 35.06093 | -90.01484 | 1504 ft | 147 kts | 8° |
| 2026-05-05 00:33 | 35.07074 | -90.01290 | 1465 ft | 143 kts | 5° |
| 2026-05-05 00:33 | 35.08000 | -90.00912 | 1448 ft | 138 kts | 51° |
| 2026-05-05 00:34 | 35.08338 | -89.99961 | 1381 ft | 117 kts | 115° |
| 2026-05-05 00:34 | 35.07943 | -89.99135 | 1169 ft | 113 kts | 153° |
| 2026-05-05 00:34 | 35.07255 | -89.98767 | 962 ft | 106 kts | 187° |
| 2026-05-05 00:34 | 35.06515 | -89.98769 | 776 ft | 106 kts | 180° |
| 2026-05-05 00:35 | 35.05784 | -89.98752 | 588 ft | 104 kts | 194° |
| 2026-05-05 00:35 | 35.05085 | -89.98745 | 416 ft | 90 kts | 183° |
| 2026-05-05 00:35 | 35.04602 | -89.98733 | 326 ft | 50 kts | 181° |
| 2026-05-05 00:35 | 35.04332 | -89.98730 | 322 ft | 31 kts | 179° |
| 2026-05-05 00:36 | 35.04148 | -89.98727 | 323 ft | 22 kts | 181° |
| 2026-05-05 00:36 | 35.04029 | -89.98723 | 323 ft | 18 kts | 180° |
| 2026-05-05 00:36 | 35.03745 | -89.98718 | 327 ft | 60 kts | 179° |
| 2026-05-05 00:36 | 35.03262 | -89.98699 | 355 ft | 74 kts | 183° |
| 2026-05-05 00:37 | 35.02677 | -89.98677 | 526 ft | 87 kts | 179° |
| 2026-05-05 00:37 | 35.02112 | -89.98601 | 905 ft | 84 kts | 188° |
| 2026-05-05 00:37 | 35.01580 | -89.98997 | 1033 ft | 102 kts | 227° |
| 2026-05-05 00:37 | 35.01394 | -89.99820 | 1351 ft | 106 kts | 271° |
| 2026-05-05 00:38 | 35.01624 | -90.00712 | 1575 ft | 112 kts | 285° |
| 2026-05-05 00:38 | 35.02171 | -90.01445 | 1782 ft | 128 kts | 320° |
| 2026-05-05 00:38 | 35.03065 | -90.01827 | 1846 ft | 145 kts | 343° |
| 2026-05-05 00:38 | 35.04104 | -90.01910 | 1772 ft | 157 kts | 360° |
| 2026-05-05 00:39 | 35.05229 | -90.01813 | 1620 ft | 167 kts | 2° |
| 2026-05-05 00:39 | 35.06380 | -90.01648 | 1440 ft | 162 kts | 6° |
| 2026-05-05 00:39 | 35.07445 | -90.01533 | 1412 ft | 147 kts | 19° |
| 2026-05-05 00:39 | 35.08092 | -90.00763 | 1427 ft | 123 kts | 88° |
| 2026-05-05 00:40 | 35.08152 | -89.99722 | 1233 ft | 122 kts | 125° |
| 2026-05-05 00:40 | 35.07689 | -89.99017 | 1012 ft | 97 kts | 170° |
| 2026-05-05 00:40 | 35.07068 | -89.98798 | 833 ft | 91 kts | 177° |
| 2026-05-05 00:40 | 35.06445 | -89.98778 | 663 ft | 87 kts | 186° |
| 2026-05-05 00:41 | 35.05872 | -89.98761 | 551 ft | 79 kts | 185° |
| 2026-05-05 00:41 | 35.05327 | -89.98750 | 424 ft | 81 kts | 185° |
| 2026-05-05 00:41 | 35.04792 | -89.98740 | 337 ft | 67 kts | 182° |
| 2026-05-05 00:41 | 35.04453 | -89.98734 | 324 ft | 35 kts | 178° |
| 2026-05-05 00:42 | 35.04245 | -89.98722 | 322 ft | 25 kts | 170° |
| 2026-05-05 00:42 | 35.04191 | -89.98578 | 324 ft | 19 kts | 84° |
| 2026-05-05 00:42 | 35.04288 | -89.98502 | 325 ft | 19 kts | 1° |
| 2026-05-05 00:42 | 35.04425 | -89.98503 | 325 ft | 20 kts | 358° |
| 2026-05-05 00:43 | 35.04570 | -89.98506 | 325 ft | 21 kts | 359° |
| 2026-05-05 00:43 | 35.04717 | -89.98510 | 325 ft | 15 kts | 359° |
| 2026-05-05 00:43 | 35.04782 | -89.98511 | 325 ft | 4 kts | 357° |
| 2026-05-05 00:43 | 35.04787 | -89.98512 | 325 ft | 0 kts | 358° |
| 2026-05-05 00:44 | 35.04790 | -89.98512 | 325 ft | 3 kts | 359° |
| 2026-05-05 00:44 | 35.04868 | -89.98514 | 325 ft | 29 kts | 358° |
| 2026-05-05 00:44 | 35.05272 | -89.98512 | 325 ft | 66 kts | 0° |
| 2026-05-05 00:45 | 35.05580 | -89.98472 | 325 ft | 21 kts | 61° |
| 2026-05-05 00:45 | 35.05481 | -89.98262 | 325 ft | 32 kts | 98° |